ROYN(METAR)
05/30 16:00
METAR ROYN 300700Z AUTO 16012KT 9999 BKN010 BKN022 30/28 Q1009 RMK
A2981=
戻る
トップページへ戻る
IMOC Co,.Ltd.